sensor_id;sensor_type;location;lat;lon;timestamp;P1;durP1;ratioP1;P2;durP2;ratioP2
69588;SDS011;56792;50.644;17.984;2023-08-20T00:01:23;19.60;;;16.60;;
69588;SDS011;56792;50.644;17.984;2023-08-20T00:03:56;19.30;;;15.90;;
69588;SDS011;56792;50.644;17.984;2023-08-20T00:06:29;19.30;;;17.10;;
69588;SDS011;56792;50.644;17.984;2023-08-20T00:09:00;20.00;;;17.70;;
69588;SDS011;56792;50.644;17.984;2023-08-20T00:11:34;19.30;;;17.20;;
69588;SDS011;56792;50.644;17.984;2023-08-20T00:14:05;21.50;;;17.40;;
69588;SDS011;56792;50.644;17.984;2023-08-20T00:16:37;19.90;;;17.50;;
69588;SDS011;56792;50.644;17.984;2023-08-20T00:19:10;19.70;;;17.50;;
69588;SDS011;56792;50.644;17.984;2023-08-20T00:21:42;20.70;;;17.80;;
69588;SDS011;56792;50.644;17.984;2023-08-20T00:24:15;20.90;;;18.00;;
69588;SDS011;56792;50.644;17.984;2023-08-20T00:26:48;22.20;;;18.60;;
69588;SDS011;56792;50.644;17.984;2023-08-20T00:29:19;18.90;;;16.50;;
69588;SDS011;56792;50.644;17.984;2023-08-20T00:31:50;21.20;;;17.80;;
69588;SDS011;56792;50.644;17.984;2023-08-20T00:34:21;20.20;;;17.60;;
69588;SDS011;56792;50.644;17.984;2023-08-20T00:36:52;20.80;;;17.50;;
69588;SDS011;56792;50.644;17.984;2023-08-20T00:39:23;20.60;;;17.70;;
69588;SDS011;56792;50.644;17.984;2023-08-20T00:41:54;22.20;;;18.00;;
69588;SDS011;56792;50.644;17.984;2023-08-20T00:44:26;22.70;;;18.40;;
69588;SDS011;56792;50.644;17.984;2023-08-20T00:46:57;21.40;;;18.30;;
69588;SDS011;56792;50.644;17.984;2023-08-20T00:49:31;21.20;;;18.50;;
69588;SDS011;56792;50.644;17.984;2023-08-20T00:52:04;20.20;;;18.00;;
69588;SDS011;56792;50.644;17.984;2023-08-20T00:54:38;20.40;;;18.10;;
69588;SDS011;56792;50.644;17.984;2023-08-20T00:57:10;22.00;;;18.80;;
69588;SDS011;56792;50.644;17.984;2023-08-20T00:59:43;20.10;;;17.30;;
69588;SDS011;56792;50.644;17.984;2023-08-20T01:02:16;22.00;;;17.90;;
69588;SDS011;56792;50.644;17.984;2023-08-20T01:04:49;22.50;;;18.10;;
69588;SDS011;56792;50.644;17.984;2023-08-20T01:07:27;22.70;;;18.10;;
69588;SDS011;56792;50.644;17.984;2023-08-20T01:10:11;21.20;;;17.40;;
69588;SDS011;56792;50.644;17.984;2023-08-20T01:12:47;22.70;;;18.50;;
69588;SDS011;56792;50.644;17.984;2023-08-20T01:15:19;22.30;;;18.90;;
69588;SDS011;56792;50.644;17.984;2023-08-20T01:17:51;21.10;;;18.50;;
69588;SDS011;56792;50.644;17.984;2023-08-20T01:20:24;21.90;;;18.40;;
69588;SDS011;56792;50.644;17.984;2023-08-20T01:26:20;20.80;;;18.50;;
69588;SDS011;56792;50.644;17.984;2023-08-20T01:28:59;22.60;;;19.60;;
69588;SDS011;56792;50.644;17.984;2023-08-20T01:31:31;21.40;;;18.30;;
69588;SDS011;56792;50.644;17.984;2023-08-20T01:34:03;23.70;;;19.30;;
69588;SDS011;56792;50.644;17.984;2023-08-20T01:36:34;24.80;;;19.30;;
69588;SDS011;56792;50.644;17.984;2023-08-20T01:39:07;24.90;;;18.80;;
69588;SDS011;56792;50.644;17.984;2023-08-20T01:41:38;22.20;;;18.10;;
69588;SDS011;56792;50.644;17.984;2023-08-20T01:44:09;22.10;;;18.50;;
69588;SDS011;56792;50.644;17.984;2023-08-20T01:46:40;21.60;;;17.20;;
69588;SDS011;56792;50.644;17.984;2023-08-20T01:49:11;21.90;;;18.20;;
69588;SDS011;56792;50.644;17.984;2023-08-20T01:51:42;22.10;;;18.50;;
69588;SDS011;56792;50.644;17.984;2023-08-20T01:54:13;21.80;;;17.90;;
69588;SDS011;56792;50.644;17.984;2023-08-20T01:56:45;19.30;;;16.40;;
69588;SDS011;56792;50.644;17.984;2023-08-20T01:59:16;20.90;;;17.30;;
69588;SDS011;56792;50.644;17.984;2023-08-20T02:01:47;19.30;;;15.80;;
69588;SDS011;56792;50.644;17.984;2023-08-20T02:04:18;18.00;;;15.90;;
69588;SDS011;56792;50.644;17.984;2023-08-20T02:06:50;20.10;;;16.10;;
69588;SDS011;56792;50.644;17.984;2023-08-20T02:09:21;17.90;;;15.90;;
69588;SDS011;56792;50.644;17.984;2023-08-20T02:11:52;18.30;;;15.60;;
69588;SDS011;56792;50.644;17.984;2023-08-20T02:14:23;18.80;;;16.50;;
69588;SDS011;56792;50.644;17.984;2023-08-20T02:16:55;19.00;;;16.50;;
69588;SDS011;56792;50.644;17.984;2023-08-20T02:19:26;20.40;;;16.70;;
69588;SDS011;56792;50.644;17.984;2023-08-20T02:21:57;19.00;;;16.70;;
69588;SDS011;56792;50.644;17.984;2023-08-20T02:24:28;21.60;;;17.10;;
69588;SDS011;56792;50.644;17.984;2023-08-20T02:26:59;23.30;;;18.10;;
69588;SDS011;56792;50.644;17.984;2023-08-20T02:29:31;22.60;;;17.60;;
69588;SDS011;56792;50.644;17.984;2023-08-20T02:32:02;20.60;;;18.20;;
69588;SDS011;56792;50.644;17.984;2023-08-20T02:34:33;21.70;;;18.20;;
69588;SDS011;56792;50.644;17.984;2023-08-20T02:37:04;20.40;;;17.30;;
69588;SDS011;56792;50.644;17.984;2023-08-20T02:39:35;20.90;;;17.80;;
69588;SDS011;56792;50.644;17.984;2023-08-20T02:42:06;21.00;;;17.00;;
69588;SDS011;56792;50.644;17.984;2023-08-20T02:44:37;21.60;;;17.20;;
69588;SDS011;56792;50.644;17.984;2023-08-20T02:47:08;19.90;;;17.50;;
69588;SDS011;56792;50.644;17.984;2023-08-20T02:49:39;21.60;;;17.50;;
69588;SDS011;56792;50.644;17.984;2023-08-20T02:52:10;18.60;;;16.60;;
69588;SDS011;56792;50.644;17.984;2023-08-20T02:54:41;21.20;;;17.60;;
69588;SDS011;56792;50.644;17.984;2023-08-20T02:57:12;19.90;;;16.50;;
69588;SDS011;56792;50.644;17.984;2023-08-20T02:59:43;19.30;;;17.10;;
69588;SDS011;56792;50.644;17.984;2023-08-20T03:02:14;18.40;;;15.60;;
69588;SDS011;56792;50.644;17.984;2023-08-20T03:04:45;20.50;;;17.50;;
69588;SDS011;56792;50.644;17.984;2023-08-20T03:07:17;20.80;;;17.70;;
69588;SDS011;56792;50.644;17.984;2023-08-20T03:09:48;21.80;;;18.00;;
69588;SDS011;56792;50.644;17.984;2023-08-20T03:12:19;20.40;;;17.90;;
69588;SDS011;56792;50.644;17.984;2023-08-20T03:14:50;20.50;;;17.50;;
69588;SDS011;56792;50.644;17.984;2023-08-20T03:17:21;20.10;;;17.00;;
69588;SDS011;56792;50.644;17.984;2023-08-20T03:20:00;22.90;;;17.50;;
69588;SDS011;56792;50.644;17.984;2023-08-20T03:22:35;21.90;;;17.50;;
69588;SDS011;56792;50.644;17.984;2023-08-20T03:25:08;20.60;;;17.40;;
69588;SDS011;56792;50.644;17.984;2023-08-20T03:27:39;20.00;;;16.60;;
69588;SDS011;56792;50.644;17.984;2023-08-20T03:30:11;20.80;;;17.30;;
69588;SDS011;56792;50.644;17.984;2023-08-20T03:32:44;19.20;;;16.90;;
69588;SDS011;56792;50.644;17.984;2023-08-20T03:35:15;22.20;;;16.90;;
69588;SDS011;56792;50.644;17.984;2023-08-20T03:37:46;19.70;;;17.00;;
69588;SDS011;56792;50.644;17.984;2023-08-20T03:40:17;23.30;;;17.00;;
69588;SDS011;56792;50.644;17.984;2023-08-20T03:42:48;19.70;;;16.60;;
69588;SDS011;56792;50.644;17.984;2023-08-20T03:45:19;23.10;;;17.50;;
69588;SDS011;56792;50.644;17.984;2023-08-20T03:47:50;22.60;;;17.30;;
69588;SDS011;56792;50.644;17.984;2023-08-20T03:50:21;20.50;;;17.80;;
69588;SDS011;56792;50.644;17.984;2023-08-20T03:52:52;19.90;;;17.70;;
69588;SDS011;56792;50.644;17.984;2023-08-20T03:55:23;21.10;;;18.00;;
69588;SDS011;56792;50.644;17.984;2023-08-20T03:57:54;21.30;;;18.50;;
69588;SDS011;56792;50.644;17.984;2023-08-20T04:00:25;20.10;;;17.60;;
69588;SDS011;56792;50.644;17.984;2023-08-20T04:02:56;21.50;;;17.90;;
69588;SDS011;56792;50.644;17.984;2023-08-20T04:05:27;21.10;;;17.80;;
69588;SDS011;56792;50.644;17.984;2023-08-20T04:07:58;21.80;;;17.90;;
69588;SDS011;56792;50.644;17.984;2023-08-20T04:10:29;20.20;;;17.80;;
69588;SDS011;56792;50.644;17.984;2023-08-20T04:13:01;25.30;;;19.10;;
69588;SDS011;56792;50.644;17.984;2023-08-20T04:15:32;25.30;;;19.90;;
69588;SDS011;56792;50.644;17.984;2023-08-20T04:18:04;23.90;;;19.00;;
69588;SDS011;56792;50.644;17.984;2023-08-20T04:20:35;20.80;;;18.00;;
69588;SDS011;56792;50.644;17.984;2023-08-20T04:23:07;20.30;;;17.60;;
69588;SDS011;56792;50.644;17.984;2023-08-20T04:25:38;20.30;;;16.70;;
69588;SDS011;56792;50.644;17.984;2023-08-20T04:28:09;20.00;;;16.30;;
69588;SDS011;56792;50.644;17.984;2023-08-20T04:30:40;20.50;;;17.30;;
69588;SDS011;56792;50.644;17.984;2023-08-20T04:33:12;19.60;;;16.90;;
69588;SDS011;56792;50.644;17.984;2023-08-20T04:35:46;20.30;;;16.80;;
69588;SDS011;56792;50.644;17.984;2023-08-20T04:38:18;21.20;;;18.70;;
69588;SDS011;56792;50.644;17.984;2023-08-20T04:40:49;23.70;;;17.70;;
69588;SDS011;56792;50.644;17.984;2023-08-20T04:43:20;17.10;;;15.30;;
69588;SDS011;56792;50.644;17.984;2023-08-20T04:45:52;21.50;;;17.10;;
69588;SDS011;56792;50.644;17.984;2023-08-20T04:48:23;20.70;;;17.40;;
69588;SDS011;56792;50.644;17.984;2023-08-20T04:50:54;20.50;;;16.60;;
69588;SDS011;56792;50.644;17.984;2023-08-20T04:53:27;21.50;;;17.00;;
69588;SDS011;56792;50.644;17.984;2023-08-20T04:55:59;20.90;;;17.60;;
69588;SDS011;56792;50.644;17.984;2023-08-20T04:58:31;24.70;;;18.40;;
69588;SDS011;56792;50.644;17.984;2023-08-20T05:01:02;21.50;;;18.20;;
69588;SDS011;56792;50.644;17.984;2023-08-20T05:03:36;23.40;;;18.60;;
69588;SDS011;56792;50.644;17.984;2023-08-20T05:06:07;24.70;;;18.60;;
69588;SDS011;56792;50.644;17.984;2023-08-20T05:08:38;21.90;;;18.80;;
69588;SDS011;56792;50.644;17.984;2023-08-20T05:11:10;23.70;;;19.60;;
69588;SDS011;56792;50.644;17.984;2023-08-20T05:13:41;25.30;;;20.50;;
69588;SDS011;56792;50.644;17.984;2023-08-20T05:16:13;24.20;;;19.20;;
69588;SDS011;56792;50.644;17.984;2023-08-20T05:18:44;23.40;;;20.10;;
69588;SDS011;56792;50.644;17.984;2023-08-20T05:21:16;27.30;;;20.30;;
69588;SDS011;56792;50.644;17.984;2023-08-20T05:23:47;22.40;;;19.80;;
69588;SDS011;56792;50.644;17.984;2023-08-20T05:26:18;21.50;;;19.10;;
69588;SDS011;56792;50.644;17.984;2023-08-20T05:28:49;24.70;;;19.80;;
69588;SDS011;56792;50.644;17.984;2023-08-20T05:31:20;23.60;;;19.60;;
69588;SDS011;56792;50.644;17.984;2023-08-20T05:33:52;22.20;;;19.30;;
69588;SDS011;56792;50.644;17.984;2023-08-20T05:36:24;24.30;;;21.20;;
69588;SDS011;56792;50.644;17.984;2023-08-20T05:38:55;23.10;;;20.70;;
69588;SDS011;56792;50.644;17.984;2023-08-20T05:41:26;23.80;;;20.50;;
69588;SDS011;56792;50.644;17.984;2023-08-20T05:43:58;22.40;;;19.90;;
69588;SDS011;56792;50.644;17.984;2023-08-20T05:46:29;23.60;;;21.10;;
69588;SDS011;56792;50.644;17.984;2023-08-20T05:49:00;24.50;;;19.50;;
69588;SDS011;56792;50.644;17.984;2023-08-20T05:51:34;23.20;;;19.20;;
69588;SDS011;56792;50.644;17.984;2023-08-20T05:54:05;24.10;;;19.40;;
69588;SDS011;56792;50.644;17.984;2023-08-20T05:56:37;21.90;;;19.40;;
69588;SDS011;56792;50.644;17.984;2023-08-20T05:59:08;22.40;;;18.60;;
69588;SDS011;56792;50.644;17.984;2023-08-20T06:01:39;19.80;;;17.70;;
69588;SDS011;56792;50.644;17.984;2023-08-20T06:04:11;21.30;;;17.80;;
69588;SDS011;56792;50.644;17.984;2023-08-20T06:06:42;22.00;;;18.20;;
69588;SDS011;56792;50.644;17.984;2023-08-20T06:09:14;21.50;;;18.30;;
69588;SDS011;56792;50.644;17.984;2023-08-20T06:11:45;22.80;;;18.30;;
69588;SDS011;56792;50.644;17.984;2023-08-20T06:14:17;23.00;;;18.90;;
69588;SDS011;56792;50.644;17.984;2023-08-20T06:16:48;22.00;;;18.00;;
69588;SDS011;56792;50.644;17.984;2023-08-20T06:19:19;20.10;;;17.90;;
69588;SDS011;56792;50.644;17.984;2023-08-20T06:21:50;19.50;;;17.40;;
69588;SDS011;56792;50.644;17.984;2023-08-20T06:24:21;19.50;;;17.10;;
69588;SDS011;56792;50.644;17.984;2023-08-20T06:26:52;20.90;;;17.60;;
69588;SDS011;56792;50.644;17.984;2023-08-20T06:29:23;20.40;;;17.80;;
69588;SDS011;56792;50.644;17.984;2023-08-20T06:31:54;18.50;;;16.20;;
69588;SDS011;56792;50.644;17.984;2023-08-20T06:34:25;18.50;;;16.60;;
69588;SDS011;56792;50.644;17.984;2023-08-20T06:36:57;19.30;;;17.20;;
69588;SDS011;56792;50.644;17.984;2023-08-20T06:39:27;20.90;;;17.20;;
69588;SDS011;56792;50.644;17.984;2023-08-20T06:41:59;17.90;;;15.90;;
69588;SDS011;56792;50.644;17.984;2023-08-20T06:44:32;18.30;;;15.60;;
69588;SDS011;56792;50.644;17.984;2023-08-20T06:47:04;19.30;;;16.30;;
69588;SDS011;56792;50.644;17.984;2023-08-20T06:49:35;17.00;;;14.90;;
69588;SDS011;56792;50.644;17.984;2023-08-20T06:52:06;18.20;;;15.40;;
69588;SDS011;56792;50.644;17.984;2023-08-20T06:54:37;17.80;;;16.00;;
69588;SDS011;56792;50.644;17.984;2023-08-20T06:57:08;17.30;;;15.50;;
69588;SDS011;56792;50.644;17.984;2023-08-20T06:59:39;17.20;;;14.50;;
69588;SDS011;56792;50.644;17.984;2023-08-20T07:02:11;16.60;;;14.80;;
69588;SDS011;56792;50.644;17.984;2023-08-20T07:04:42;16.70;;;15.00;;
69588;SDS011;56792;50.644;17.984;2023-08-20T07:07:14;20.30;;;15.60;;
69588;SDS011;56792;50.644;17.984;2023-08-20T07:09:45;16.30;;;14.70;;
69588;SDS011;56792;50.644;17.984;2023-08-20T07:12:16;15.60;;;13.90;;
69588;SDS011;56792;50.644;17.984;2023-08-20T07:14:47;15.10;;;13.70;;
69588;SDS011;56792;50.644;17.984;2023-08-20T07:17:18;15.70;;;14.10;;
69588;SDS011;56792;50.644;17.984;2023-08-20T07:19:49;16.40;;;14.70;;
69588;SDS011;56792;50.644;17.984;2023-08-20T07:22:20;16.50;;;14.80;;
69588;SDS011;56792;50.644;17.984;2023-08-20T07:24:51;15.30;;;13.70;;
69588;SDS011;56792;50.644;17.984;2023-08-20T07:27:23;15.50;;;13.70;;
69588;SDS011;56792;50.644;17.984;2023-08-20T07:29:54;15.60;;;13.90;;
69588;SDS011;56792;50.644;17.984;2023-08-20T07:32:25;17.10;;;13.40;;
69588;SDS011;56792;50.644;17.984;2023-08-20T07:34:56;15.90;;;14.20;;
69588;SDS011;56792;50.644;17.984;2023-08-20T07:37:27;14.70;;;13.30;;
69588;SDS011;56792;50.644;17.984;2023-08-20T07:39:58;13.80;;;12.30;;
69588;SDS011;56792;50.644;17.984;2023-08-20T07:42:29;14.10;;;12.70;;
69588;SDS011;56792;50.644;17.984;2023-08-20T07:45:00;13.90;;;12.20;;
69588;SDS011;56792;50.644;17.984;2023-08-20T07:47:31;14.30;;;12.70;;
69588;SDS011;56792;50.644;17.984;2023-08-20T07:50:03;13.90;;;12.50;;
69588;SDS011;56792;50.644;17.984;2023-08-20T07:52:34;13.70;;;12.30;;
69588;SDS011;56792;50.644;17.984;2023-08-20T07:55:07;13.60;;;12.20;;
69588;SDS011;56792;50.644;17.984;2023-08-20T07:57:38;14.90;;;13.40;;
69588;SDS011;56792;50.644;17.984;2023-08-20T08:00:13;15.70;;;12.70;;
69588;SDS011;56792;50.644;17.984;2023-08-20T08:02:45;14.20;;;12.20;;
69588;SDS011;56792;50.644;17.984;2023-08-20T08:05:16;13.90;;;11.90;;
69588;SDS011;56792;50.644;17.984;2023-08-20T08:07:47;14.70;;;12.90;;
69588;SDS011;56792;50.644;17.984;2023-08-20T08:10:18;14.50;;;12.40;;
69588;SDS011;56792;50.644;17.984;2023-08-20T08:12:49;13.70;;;12.20;;
69588;SDS011;56792;50.644;17.984;2023-08-20T08:15:20;14.60;;;12.50;;
69588;SDS011;56792;50.644;17.984;2023-08-20T08:17:52;14.20;;;12.80;;
69588;SDS011;56792;50.644;17.984;2023-08-20T08:20:23;14.00;;;12.10;;
69588;SDS011;56792;50.644;17.984;2023-08-20T08:22:54;16.00;;;13.30;;
69588;SDS011;56792;50.644;17.984;2023-08-20T08:25:25;13.50;;;11.80;;
69588;SDS011;56792;50.644;17.984;2023-08-20T08:27:56;14.30;;;12.50;;
69588;SDS011;56792;50.644;17.984;2023-08-20T08:30:27;14.30;;;12.30;;
69588;SDS011;56792;50.644;17.984;2023-08-20T08:32:59;13.50;;;12.20;;
69588;SDS011;56792;50.644;17.984;2023-08-20T08:35:30;12.70;;;11.40;;
69588;SDS011;56792;50.644;17.984;2023-08-20T08:38:01;13.00;;;11.60;;
69588;SDS011;56792;50.644;17.984;2023-08-20T08:40:34;11.90;;;10.70;;
69588;SDS011;56792;50.644;17.984;2023-08-20T08:43:06;11.50;;;10.10;;
69588;SDS011;56792;50.644;17.984;2023-08-20T08:45:46;11.20;;;10.10;;
69588;SDS011;56792;50.644;17.984;2023-08-20T08:48:18;12.10;;;10.80;;
69588;SDS011;56792;50.644;17.984;2023-08-20T08:50:50;12.20;;;10.90;;
69588;SDS011;56792;50.644;17.984;2023-08-20T08:53:22;12.30;;;11.10;;
69588;SDS011;56792;50.644;17.984;2023-08-20T08:55:55;11.50;;;10.20;;
69588;SDS011;56792;50.644;17.984;2023-08-20T08:58:26;10.50;;;9.50;;
69588;SDS011;56792;50.644;17.984;2023-08-20T09:00:57;10.80;;;9.70;;
69588;SDS011;56792;50.644;17.984;2023-08-20T09:03:29;9.90;;;8.90;;
69588;SDS011;56792;50.644;17.984;2023-08-20T09:06:01;9.80;;;8.80;;
69588;SDS011;56792;50.644;17.984;2023-08-20T09:08:37;10.70;;;9.10;;
69588;SDS011;56792;50.644;17.984;2023-08-20T09:11:08;9.80;;;8.80;;
69588;SDS011;56792;50.644;17.984;2023-08-20T09:13:41;10.00;;;8.80;;
69588;SDS011;56792;50.644;17.984;2023-08-20T09:16:13;9.40;;;8.40;;
69588;SDS011;56792;50.644;17.984;2023-08-20T09:18:45;10.30;;;9.30;;
69588;SDS011;56792;50.644;17.984;2023-08-20T09:21:16;11.00;;;9.20;;
69588;SDS011;56792;50.644;17.984;2023-08-20T09:23:48;10.00;;;8.80;;
69588;SDS011;56792;50.644;17.984;2023-08-20T09:26:19;9.60;;;8.70;;
69588;SDS011;56792;50.644;17.984;2023-08-20T09:28:50;10.30;;;9.30;;
69588;SDS011;56792;50.644;17.984;2023-08-20T09:31:38;9.80;;;8.70;;
69588;SDS011;56792;50.644;17.984;2023-08-20T09:34:13;11.50;;;9.10;;
69588;SDS011;56792;50.644;17.984;2023-08-20T09:36:44;10.10;;;8.30;;
69588;SDS011;56792;50.644;17.984;2023-08-20T09:39:15;9.20;;;8.20;;
69588;SDS011;56792;50.644;17.984;2023-08-20T09:41:48;9.50;;;8.50;;
69588;SDS011;56792;50.644;17.984;2023-08-20T09:44:21;9.40;;;8.50;;
69588;SDS011;56792;50.644;17.984;2023-08-20T09:46:53;10.20;;;8.60;;
69588;SDS011;56792;50.644;17.984;2023-08-20T09:49:29;9.10;;;8.20;;
69588;SDS011;56792;50.644;17.984;2023-08-20T09:52:05;9.70;;;8.70;;
69588;SDS011;56792;50.644;17.984;2023-08-20T09:54:45;9.70;;;8.70;;
69588;SDS011;56792;50.644;17.984;2023-08-20T09:57:34;9.40;;;8.50;;
69588;SDS011;56792;50.644;17.984;2023-08-20T10:00:09;10.00;;;9.10;;
69588;SDS011;56792;50.644;17.984;2023-08-20T10:02:44;10.00;;;9.00;;
69588;SDS011;56792;50.644;17.984;2023-08-20T10:05:15;10.90;;;10.00;;
69588;SDS011;56792;50.644;17.984;2023-08-20T10:07:49;11.30;;;10.30;;
69588;SDS011;56792;50.644;17.984;2023-08-20T10:10:20;11.90;;;10.90;;
69588;SDS011;56792;50.644;17.984;2023-08-20T10:12:51;11.90;;;10.80;;
69588;SDS011;56792;50.644;17.984;2023-08-20T10:15:24;12.00;;;11.20;;
69588;SDS011;56792;50.644;17.984;2023-08-20T10:17:58;13.20;;;12.20;;
69588;SDS011;56792;50.644;17.984;2023-08-20T10:20:30;13.40;;;12.30;;
69588;SDS011;56792;50.644;17.984;2023-08-20T10:23:04;12.30;;;11.30;;
69588;SDS011;56792;50.644;17.984;2023-08-20T10:25:41;14.40;;;13.40;;
69588;SDS011;56792;50.644;17.984;2023-08-20T10:28:20;15.10;;;13.70;;
69588;SDS011;56792;50.644;17.984;2023-08-20T10:31:06;15.60;;;14.60;;
69588;SDS011;56792;50.644;17.984;2023-08-20T10:33:47;15.50;;;14.50;;
69588;SDS011;56792;50.644;17.984;2023-08-20T10:36:21;16.00;;;15.00;;
69588;SDS011;56792;50.644;17.984;2023-08-20T10:38:56;14.90;;;13.90;;
69588;SDS011;56792;50.644;17.984;2023-08-20T10:41:32;15.80;;;14.80;;
69588;SDS011;56792;50.644;17.984;2023-08-20T10:44:05;16.00;;;15.00;;
69588;SDS011;56792;50.644;17.984;2023-08-20T10:46:50;17.50;;;16.30;;
69588;SDS011;56792;50.644;17.984;2023-08-20T10:49:22;16.80;;;15.70;;
69588;SDS011;56792;50.644;17.984;2023-08-20T10:51:53;17.90;;;16.90;;
69588;SDS011;56792;50.644;17.984;2023-08-20T10:54:25;16.90;;;15.70;;
69588;SDS011;56792;50.644;17.984;2023-08-20T10:56:59;17.20;;;16.20;;
69588;SDS011;56792;50.644;17.984;2023-08-20T10:59:30;18.30;;;17.20;;
69588;SDS011;56792;50.644;17.984;2023-08-20T11:02:03;18.90;;;17.70;;
69588;SDS011;56792;50.644;17.984;2023-08-20T11:04:41;18.80;;;17.60;;
69588;SDS011;56792;50.644;17.984;2023-08-20T11:07:12;17.70;;;16.60;;
69588;SDS011;56792;50.644;17.984;2023-08-20T11:09:48;18.20;;;17.10;;
69588;SDS011;56792;50.644;17.984;2023-08-20T11:12:22;20.30;;;19.10;;
69588;SDS011;56792;50.644;17.984;2023-08-20T11:14:53;18.10;;;17.00;;
69588;SDS011;56792;50.644;17.984;2023-08-20T11:17:31;19.70;;;18.60;;
69588;SDS011;56792;50.644;17.984;2023-08-20T11:20:03;19.90;;;18.70;;
69588;SDS011;56792;50.644;17.984;2023-08-20T11:22:35;19.90;;;18.70;;
69588;SDS011;56792;50.644;17.984;2023-08-20T11:25:11;20.40;;;19.20;;
69588;SDS011;56792;50.644;17.984;2023-08-20T11:27:45;20.80;;;19.70;;
69588;SDS011;56792;50.644;17.984;2023-08-20T11:30:16;19.60;;;18.40;;
69588;SDS011;56792;50.644;17.984;2023-08-20T11:32:48;21.30;;;20.00;;
69588;SDS011;56792;50.644;17.984;2023-08-20T11:35:21;20.80;;;19.70;;
69588;SDS011;56792;50.644;17.984;2023-08-20T11:37:53;21.50;;;20.00;;
69588;SDS011;56792;50.644;17.984;2023-08-20T11:40:25;20.70;;;19.50;;
69588;SDS011;56792;50.644;17.984;2023-08-20T11:42:55;20.70;;;19.60;;
69588;SDS011;56792;50.644;17.984;2023-08-20T11:45:27;21.40;;;20.20;;
69588;SDS011;56792;50.644;17.984;2023-08-20T11:47:58;20.80;;;19.60;;
69588;SDS011;56792;50.644;17.984;2023-08-20T11:50:29;20.70;;;19.60;;
69588;SDS011;56792;50.644;17.984;2023-08-20T11:53:00;22.70;;;21.40;;
69588;SDS011;56792;50.644;17.984;2023-08-20T11:55:32;22.80;;;21.30;;
69588;SDS011;56792;50.644;17.984;2023-08-20T11:58:04;23.70;;;22.40;;
69588;SDS011;56792;50.644;17.984;2023-08-20T12:00:37;23.20;;;21.90;;
69588;SDS011;56792;50.644;17.984;2023-08-20T12:03:10;23.40;;;22.10;;
69588;SDS011;56792;50.644;17.984;2023-08-20T12:05:43;21.90;;;20.70;;
69588;SDS011;56792;50.644;17.984;2023-08-20T12:08:17;21.20;;;20.00;;
69588;SDS011;56792;50.644;17.984;2023-08-20T12:10:48;23.40;;;22.00;;
69588;SDS011;56792;50.644;17.984;2023-08-20T12:13:20;21.80;;;20.60;;
69588;SDS011;56792;50.644;17.984;2023-08-20T12:15:52;22.20;;;21.00;;
69588;SDS011;56792;50.644;17.984;2023-08-20T12:18:23;23.30;;;22.00;;
69588;SDS011;56792;50.644;17.984;2023-08-20T12:20:54;21.40;;;20.20;;
69588;SDS011;56792;50.644;17.984;2023-08-20T12:23:25;22.00;;;20.90;;
69588;SDS011;56792;50.644;17.984;2023-08-20T12:25:56;21.20;;;20.00;;
69588;SDS011;56792;50.644;17.984;2023-08-20T12:28:27;22.70;;;21.30;;
69588;SDS011;56792;50.644;17.984;2023-08-20T12:30:58;20.50;;;19.40;;
69588;SDS011;56792;50.644;17.984;2023-08-20T12:33:31;20.40;;;19.10;;
69588;SDS011;56792;50.644;17.984;2023-08-20T12:36:02;18.70;;;17.60;;
69588;SDS011;56792;50.644;17.984;2023-08-20T12:38:33;18.50;;;17.40;;
69588;SDS011;56792;50.644;17.984;2023-08-20T12:41:04;17.90;;;17.00;;
69588;SDS011;56792;50.644;17.984;2023-08-20T12:43:35;18.50;;;17.40;;
69588;SDS011;56792;50.644;17.984;2023-08-20T12:46:07;16.10;;;15.20;;
69588;SDS011;56792;50.644;17.984;2023-08-20T12:48:38;16.10;;;15.10;;
69588;SDS011;56792;50.644;17.984;2023-08-20T12:51:09;16.70;;;15.50;;
69588;SDS011;56792;50.644;17.984;2023-08-20T12:53:42;16.40;;;15.30;;
69588;SDS011;56792;50.644;17.984;2023-08-20T12:56:13;15.50;;;14.30;;
69588;SDS011;56792;50.644;17.984;2023-08-20T12:58:44;15.70;;;14.70;;
69588;SDS011;56792;50.644;17.984;2023-08-20T13:01:15;14.90;;;14.00;;
69588;SDS011;56792;50.644;17.984;2023-08-20T13:03:48;14.80;;;13.80;;
69588;SDS011;56792;50.644;17.984;2023-08-20T13:06:21;13.90;;;13.00;;
69588;SDS011;56792;50.644;17.984;2023-08-20T13:08:53;13.20;;;12.30;;
69588;SDS011;56792;50.644;17.984;2023-08-20T13:11:26;11.60;;;10.80;;
69588;SDS011;56792;50.644;17.984;2023-08-20T13:14:01;11.00;;;10.20;;
69588;SDS011;56792;50.644;17.984;2023-08-20T13:16:33;10.50;;;9.70;;
69588;SDS011;56792;50.644;17.984;2023-08-20T13:19:07;10.00;;;9.10;;
69588;SDS011;56792;50.644;17.984;2023-08-20T13:21:38;9.20;;;8.40;;
69588;SDS011;56792;50.644;17.984;2023-08-20T13:24:10;9.60;;;8.80;;
69588;SDS011;56792;50.644;17.984;2023-08-20T13:26:41;9.00;;;8.00;;
69588;SDS011;56792;50.644;17.984;2023-08-20T13:29:12;8.60;;;7.80;;
69588;SDS011;56792;50.644;17.984;2023-08-20T13:31:43;8.30;;;7.70;;
69588;SDS011;56792;50.644;17.984;2023-08-20T13:34:14;9.30;;;8.50;;
69588;SDS011;56792;50.644;17.984;2023-08-20T13:36:45;7.90;;;7.20;;
69588;SDS011;56792;50.644;17.984;2023-08-20T13:39:16;9.10;;;8.30;;
69588;SDS011;56792;50.644;17.984;2023-08-20T13:41:50;8.50;;;7.80;;
69588;SDS011;56792;50.644;17.984;2023-08-20T13:44:22;9.30;;;8.30;;
69588;SDS011;56792;50.644;17.984;2023-08-20T13:46:53;8.00;;;7.10;;
69588;SDS011;56792;50.644;17.984;2023-08-20T13:49:24;8.80;;;8.00;;
69588;SDS011;56792;50.644;17.984;2023-08-20T13:51:55;8.80;;;7.90;;
69588;SDS011;56792;50.644;17.984;2023-08-20T13:54:26;8.40;;;7.60;;
69588;SDS011;56792;50.644;17.984;2023-08-20T13:56:57;8.60;;;7.80;;
69588;SDS011;56792;50.644;17.984;2023-08-20T13:59:28;8.60;;;7.80;;
69588;SDS011;56792;50.644;17.984;2023-08-20T14:01:59;8.60;;;7.90;;
69588;SDS011;56792;50.644;17.984;2023-08-20T14:04:30;7.40;;;6.60;;
69588;SDS011;56792;50.644;17.984;2023-08-20T14:07:01;7.20;;;6.40;;
69588;SDS011;56792;50.644;17.984;2023-08-20T14:09:32;7.80;;;6.70;;
69588;SDS011;56792;50.644;17.984;2023-08-20T14:12:04;8.20;;;6.70;;
69588;SDS011;56792;50.644;17.984;2023-08-20T14:14:36;6.70;;;6.10;;
69588;SDS011;56792;50.644;17.984;2023-08-20T14:17:07;8.00;;;7.20;;
69588;SDS011;56792;50.644;17.984;2023-08-20T14:19:38;8.50;;;7.60;;
69588;SDS011;56792;50.644;17.984;2023-08-20T14:22:09;8.60;;;7.80;;
69588;SDS011;56792;50.644;17.984;2023-08-20T14:24:40;8.20;;;7.40;;
69588;SDS011;56792;50.644;17.984;2023-08-20T14:27:12;8.20;;;7.20;;
69588;SDS011;56792;50.644;17.984;2023-08-20T14:29:43;7.90;;;7.10;;
69588;SDS011;56792;50.644;17.984;2023-08-20T14:32:14;8.20;;;7.10;;
69588;SDS011;56792;50.644;17.984;2023-08-20T14:34:45;8.20;;;7.40;;
69588;SDS011;56792;50.644;17.984;2023-08-20T14:37:16;7.30;;;6.50;;
69588;SDS011;56792;50.644;17.984;2023-08-20T14:39:47;8.00;;;7.20;;
69588;SDS011;56792;50.644;17.984;2023-08-20T14:42:19;7.50;;;6.80;;
69588;SDS011;56792;50.644;17.984;2023-08-20T14:44:51;8.50;;;7.60;;